Time;durP1;ratioP1;P1;durP2;ratioP2;P2;SDS_P1;SDS_P2;PMS_P1;PMS_P2;Temp;Humidity;BMP_temperature;BMP_pressure;BME280_temperature;BME280_humidity;BME280_pressure;Samples;Min_cycle;Max_cycle;Signal;HPM_P1;HPM_P2
2022/11/23 00:00:03;;;;;;;17.23;10.17;;;;;;;-141.97;80.63;47880.44;5032873;28;20180;-87
2022/11/23 00:02:28;;;;;;;19.90;11.33;;;;;;;-141.97;81.32;47653.63;5033104;28;20170;-89
2022/11/23 00:04:54;;;;;;;23.23;12.27;;;;;;;-141.97;82.60;47820.84;5035024;28;20180;-93
2022/11/23 00:07:19;;;;;;;24.97;12.77;;;;;;;-141.97;83.02;47811.25;5026593;28;20213;-90
2022/11/23 00:09:45;;;;;;;27.70;13.80;;;;;;;-141.97;82.73;47836.22;5023085;28;20178;-87
2022/11/23 00:12:10;;;;;;;28.60;15.80;;;;;;;-141.97;82.66;47694.00;5035130;28;20220;-89
2022/11/23 00:14:36;;;;;;;30.37;16.77;;;;;;;-141.97;82.34;47753.56;5034081;28;20178;-90
2022/11/23 00:17:02;;;;;;;30.60;16.87;;;;;;;-141.97;82.09;47797.78;5033268;28;20662;-91
2022/11/23 00:19:28;;;;;;;29.47;16.53;;;;;;;-141.97;82.23;47695.91;5019755;28;20578;-92
2022/11/23 00:21:53;;;;;;;34.13;17.07;;;;;;;-141.97;81.51;47707.44;5033283;28;20172;-90
2022/11/23 00:24:18;;;;;;;30.63;16.73;;;;;;;-141.97;80.47;47870.81;5017462;28;20169;-90
2022/11/23 00:26:44;;;;;;;31.17;16.03;;;;;;;-141.97;80.21;47784.34;5035247;28;20205;-90
2022/11/23 00:29:09;;;;;;;31.77;16.70;;;;;;;-141.97;79.95;47745.88;5035728;28;20543;-91
2022/11/23 00:31:35;;;;;;;30.40;17.07;;;;;;;-141.97;78.42;47818.94;5053296;28;20154;-92
2022/11/23 00:34:01;;;;;;;31.17;17.40;;;;;;;-141.97;78.13;47824.69;5038595;28;20212;-91
2022/11/23 00:36:27;;;;;;;30.73;16.80;;;;;;;-141.97;77.87;47667.06;5055006;28;20158;-92
2022/11/23 00:38:57;;;;;;;30.93;16.93;;;;;;;-141.97;77.53;47820.84;5038299;28;20189;-91
2022/11/23 00:41:25;;;;;;;31.67;16.37;;;;;;;-141.97;77.92;47857.38;5019348;28;20757;-91
2022/11/23 00:43:51;;;;;;;32.23;17.80;;;;;;;-141.97;79.08;47788.19;5034026;28;20170;-91
2022/11/23 00:46:22;;;;;;;32.80;17.33;;;;;;;-141.97;79.99;47805.47;5033392;28;20249;-91
2022/11/23 00:48:50;;;;;;;31.20;16.80;;;;;;;-141.97;80.65;47826.63;5033881;28;20162;-90
2022/11/23 00:51:18;;;;;;;34.37;17.23;;;;;;;-141.97;82.11;47763.19;5017871;28;20189;-90
2022/11/23 00:53:44;;;;;;;32.67;16.90;;;;;;;-141.97;83.29;47801.63;5046043;28;20161;-91
2022/11/23 00:56:10;;;;;;;32.23;17.37;;;;;;;-141.97;85.62;47805.47;5017977;28;20216;-91
2022/11/23 00:58:39;;;;;;;32.20;17.43;;;;;;;-141.97;85.95;47759.34;5039593;28;20190;-90
2022/11/23 01:01:10;;;;;;;33.23;17.27;;;;;;;-141.97;86.50;47786.25;5040390;28;20217;-90
2022/11/23 01:03:38;;;;;;;32.63;17.20;;;;;;;-141.97;86.94;47697.84;5023346;28;20166;-89
2022/11/23 01:06:07;;;;;;;34.27;18.70;;;;;;;-141.97;86.54;47840.06;5037883;28;20248;-89
2022/11/23 01:08:32;;;;;;;35.00;19.43;;;;;;;-141.97;87.13;47730.50;5037651;28;20173;-90
2022/11/23 01:11:00;;;;;;;35.63;19.10;;;;;;;-141.97;86.88;47740.13;5037956;28;20230;-90
2022/11/23 01:13:26;;;;;;;39.57;21.13;;;;;;;-141.97;87.55;47684.38;5048022;28;20189;-90
2022/11/23 01:15:51;;;;;;;39.73;21.60;;;;;;;-141.97;88.27;47790.09;5035579;28;20162;-92
2022/11/23 01:18:16;;;;;;;43.03;21.80;;;;;;;-141.97;89.65;47815.09;5018511;28;20173;-89
2022/11/23 01:20:42;;;;;;;37.87;20.33;;;;;;;-141.97;90.43;47684.38;5036722;28;20173;-91
2022/11/23 01:23:07;;;;;;;34.57;18.03;;;;;;;-141.97;92.86;47678.63;5036353;28;20154;-89
2022/11/23 01:25:35;;;;;;;33.67;17.70;;;;;;;-141.97;97.26;47747.81;5034700;28;20537;-90
2022/11/23 01:28:00;;;;;;;39.47;20.83;;;;;;;-141.97;97.72;47803.56;5035712;28;20190;-90
2022/11/23 01:30:25;;;;;;;41.57;22.30;;;;;;;-141.97;97.18;47790.09;5031615;28;20169;-90
2022/11/23 01:32:51;;;;;;;35.27;19.10;;;;;;;-141.97;96.58;47707.44;5053979;28;20166;-89
2022/11/23 01:35:16;;;;;;;35.27;19.47;;;;;;;-141.97;97.16;47770.88;5051856;28;20177;-90
2022/11/23 01:37:41;;;;;;;44.03;22.17;;;;;;;-141.97;97.61;47699.75;5048644;28;20159;-89
2022/11/23 01:40:08;;;;;;;30.47;14.60;;;;;;;-141.97;100.00;47680.53;5037342;28;20173;-90
2022/11/23 01:42:43;;;;;;;31.87;15.30;;;;;;;-141.97;100.00;47801.63;5034680;28;20158;-89
2022/11/23 01:45:33;;;;;;;38.33;20.27;;;;;;;-141.97;100.00;47820.84;5032706;28;20657;-88
2022/11/23 01:47:58;;;;;;;38.47;19.07;;;;;;;-141.97;100.00;47834.31;5015418;28;20229;-89
2022/11/23 01:50:24;;;;;;;37.23;20.27;;;;;;;-141.97;100.00;47713.22;5032185;28;20653;-89
2022/11/23 01:52:50;;;;;;;36.87;18.93;;;;;;;-141.97;100.00;47784.34;5017316;28;20219;-88
2022/11/23 01:55:16;;;;;;;35.10;18.70;;;;;;;-141.97;100.00;47742.03;5032371;28;20162;-89
2022/11/23 01:57:43;;;;;;;36.50;18.43;;;;;;;-141.97;100.00;47765.09;5031745;28;20517;-89
2022/11/23 02:00:09;;;;;;;32.13;17.50;;;;;;;-141.97;100.00;47722.81;5035800;28;20568;-89
2022/11/23 02:02:39;;;;;;;33.57;17.50;;;;;;;-141.97;100.00;47784.34;5021115;28;20158;-88
2022/11/23 02:05:05;;;;;;;33.67;17.00;;;;;;;-141.97;100.00;47853.53;5024026;28;20558;-87
2022/11/23 02:07:32;;;;;;;33.90;18.03;;;;;;;-141.97;100.00;47790.09;5035460;28;20200;-89
2022/11/23 02:09:58;;;;;;;34.57;18.70;;;;;;;-141.97;100.00;47926.56;5035418;28;20162;-89
2022/11/23 02:12:23;;;;;;;39.27;19.57;;;;;;;-141.97;100.00;47755.50;4996485;28;1229422;-88
2022/11/23 02:14:49;;;;;;;34.90;18.40;;;;;;;-141.97;100.00;47849.69;5019032;28;20178;-89
2022/11/23 02:17:14;;;;;;;32.77;17.63;;;;;;;-141.97;100.00;47768.94;5035305;28;20174;-89
2022/11/23 02:20:06;;;;;;;40.10;20.00;;;;;;;-141.97;100.00;47893.91;5036021;28;20170;-89
2022/11/23 02:22:40;;;;;;;32.07;17.27;;;;;;;-141.97;100.00;47757.41;5037902;28;20174;-88
2022/11/23 02:25:16;;;;;;;34.60;17.77;;;;;;;-141.97;100.00;47784.34;5036957;28;20239;-89
2022/11/23 02:27:41;;;;;;;31.50;16.93;;;;;;;-141.97;100.00;47730.50;5036833;28;20213;-89
2022/11/23 02:30:08;;;;;;;36.03;18.47;;;;;;;-141.97;100.00;47886.22;5037160;28;20579;-89
2022/11/23 02:32:34;;;;;;;33.27;18.23;;;;;;;-141.97;100.00;47797.78;5037637;28;20368;-90
2022/11/23 02:34:59;;;;;;;39.27;19.43;;;;;;;-141.97;100.00;47765.09;5037437;28;20633;-89
2022/11/23 02:37:25;;;;;;;39.33;19.67;;;;;;;-141.97;100.00;47857.38;5037501;28;20166;-89
2022/11/23 02:39:53;;;;;;;34.17;19.13;;;;;;;-141.97;100.00;47661.31;5037327;28;20173;-89
2022/11/23 02:42:19;;;;;;;37.83;19.73;;;;;;;-141.97;100.00;47740.13;5038517;28;20170;-89
2022/11/23 02:44:47;;;;;;;33.97;17.67;;;;;;;-141.97;100.00;47834.31;5038770;28;20169;-89
2022/11/23 02:47:13;;;;;;;36.73;18.17;;;;;;;-141.97;100.00;47876.59;5022838;28;20197;-90
2022/11/23 02:49:40;;;;;;;36.07;18.53;;;;;;;-141.97;100.00;47813.16;5021741;28;20174;-90
2022/11/23 02:52:07;;;;;;;35.77;18.43;;;;;;;-141.97;100.00;47838.16;5037117;28;20212;-89
2022/11/23 02:54:33;;;;;;;39.37;18.60;;;;;;;-141.97;100.00;47813.16;5037863;28;20252;-89
2022/11/23 02:56:58;;;;;;;35.90;18.27;;;;;;;-141.97;100.00;47807.41;5038408;28;20201;-90
2022/11/23 02:59:23;;;;;;;41.23;18.83;;;;;;;-141.97;100.00;47830.47;5039624;28;20225;-91
2022/11/23 03:01:49;;;;;;;35.73;17.77;;;;;;;-141.97;100.00;47924.66;5037503;28;20166;-90
2022/11/23 03:04:14;;;;;;;31.50;16.30;;;;;;;-141.97;100.00;47815.09;5039164;28;20166;-91
2022/11/23 03:06:40;;;;;;;34.03;18.13;;;;;;;-141.97;100.00;47761.25;5039303;28;20194;-86
2022/11/23 03:09:06;;;;;;;32.80;16.47;;;;;;;-141.97;100.00;47809.31;5038846;28;20177;-86
2022/11/23 03:11:32;;;;;;;30.47;16.20;;;;;;;-141.97;100.00;47888.13;5040740;28;20646;-86
2022/11/23 03:13:57;;;;;;;33.20;16.60;;;;;;;-141.97;100.00;47772.78;5038437;28;20178;-86
2022/11/23 03:16:23;;;;;;;33.67;16.17;;;;;;;-141.97;100.00;47701.69;5023367;28;20206;-86
2022/11/23 03:18:49;;;;;;;35.67;19.50;;;;;;;-141.97;100.00;47815.09;5039840;28;20166;-88
2022/11/23 03:21:15;;;;;;;51.00;25.53;;;;;;;-141.97;100.00;47834.31;5038303;28;20166;-87
2022/11/23 03:23:40;;;;;;;33.53;17.73;;;;;;;-141.97;100.00;47822.78;5037807;28;20228;-86
2022/11/23 03:26:06;;;;;;;32.33;17.30;;;;;;;-141.97;100.00;47730.50;5037397;28;20170;-87
2022/11/23 03:28:31;;;;;;;29.10;15.57;;;;;;;-141.97;100.00;47830.47;5037186;28;20216;-87
2022/11/23 03:30:57;;;;;;;33.00;16.50;;;;;;;-141.97;100.00;47838.16;5038674;28;20173;-87
2022/11/23 03:33:22;;;;;;;28.67;15.87;;;;;;;-141.97;100.00;47799.72;5038820;28;20162;-87
2022/11/23 03:35:48;;;;;;;28.10;15.90;;;;;;;-141.97;100.00;47692.06;5037886;28;20240;-89
2022/11/23 03:38:13;;;;;;;34.03;17.53;;;;;;;-141.97;100.00;47782.41;5019479;28;20600;-87
2022/11/23 03:40:39;;;;;;;32.07;17.27;;;;;;;-141.97;100.00;47824.69;5037178;28;20163;-87
2022/11/23 03:43:05;;;;;;;29.47;14.80;;;;;;;-141.97;100.00;47797.78;5037339;28;20201;-87
2022/11/23 03:45:30;;;;;;;24.47;13.33;;;;;;;-141.97;100.00;47872.75;5036500;28;20554;-85
2022/11/23 03:47:55;;;;;;;25.10;13.53;;;;;;;-141.97;100.00;47815.09;5035727;28;20193;-85
2022/11/23 03:50:21;;;;;;;23.90;12.03;;;;;;;-141.97;100.00;47855.44;5044224;28;20232;-85
2022/11/23 03:52:49;;;;;;;25.37;13.17;;;;;;;-141.97;100.00;47890.06;5052594;28;20178;-84
2022/11/23 03:55:15;;;;;;;23.13;13.07;;;;;;;-141.97;100.00;47788.19;5038585;28;20162;-85
2022/11/23 03:57:41;;;;;;;24.70;12.30;;;;;;;-141.97;100.00;47730.50;5049333;28;20182;-85
2022/11/23 04:00:07;;;;;;;23.47;12.77;;;;;;;-141.97;100.00;47899.66;5051056;28;20224;-85
2022/11/23 04:02:33;;;;;;;23.30;12.13;;;;;;;-141.97;100.00;47709.38;5037572;28;20197;-86
2022/11/23 04:04:58;;;;;;;24.67;13.17;;;;;;;-141.97;100.00;47857.38;5038381;28;20182;-85
2022/11/23 04:07:24;;;;;;;26.13;14.13;;;;;;;-141.97;100.00;47745.88;5038163;28;20190;-86
2022/11/23 04:09:49;;;;;;;26.87;13.00;;;;;;;-141.97;100.00;47759.34;5038595;28;20157;-86
2022/11/23 04:12:14;;;;;;;25.20;13.23;;;;;;;-141.97;100.00;47822.78;5037634;28;20257;-85
2022/11/23 04:14:40;;;;;;;26.23;13.90;;;;;;;-141.97;100.00;47759.34;5040643;28;20189;-85
2022/11/23 04:17:05;;;;;;;27.73;15.17;;;;;;;-141.97;100.00;47680.53;5039247;28;20158;-86
2022/11/23 04:19:31;;;;;;;25.13;14.70;;;;;;;-141.97;100.00;47745.88;5039515;28;20162;-85
2022/11/23 04:21:57;;;;;;;25.17;14.00;;;;;;;-141.97;100.00;47868.91;5039478;28;20166;-86
2022/11/23 04:24:22;;;;;;;26.37;13.67;;;;;;;-141.97;100.00;47767.03;5026612;28;20173;-85
2022/11/23 04:26:48;;;;;;;24.07;12.87;;;;;;;-141.97;100.00;47793.94;5041661;28;20198;-86
2022/11/23 04:29:13;;;;;;;30.93;16.87;;;;;;;-141.97;100.00;47730.50;5042523;28;20174;-87
2022/11/23 04:31:39;;;;;;;25.63;13.70;;;;;;;-141.97;100.00;47759.34;5041821;28;20166;-85
2022/11/23 04:34:04;;;;;;;24.97;13.50;;;;;;;-141.97;100.00;47845.84;5039369;28;20166;-86
2022/11/23 04:36:30;;;;;;;27.13;14.97;;;;;;;-141.97;100.00;47845.84;5037906;28;20216;-86
2022/11/23 04:38:55;;;;;;;23.33;12.20;;;;;;;-141.97;100.00;47926.56;5037103;28;20173;-86
2022/11/23 04:41:22;;;;;;;23.63;12.67;;;;;;;-141.97;99.28;47830.47;5020165;28;20170;-86
2022/11/23 04:43:48;;;;;;;27.80;14.00;;;;;;;-141.97;99.00;47899.66;5035894;28;20166;-86
2022/11/23 04:46:13;;;;;;;19.27;11.57;;;;;;;-141.97;98.63;47788.19;5036399;28;20254;-85
2022/11/23 04:48:39;;;;;;;22.43;11.60;;;;;;;-141.97;98.17;47749.72;5017476;28;20231;-86
2022/11/23 04:51:04;;;;;;;20.03;11.00;;;;;;;-141.97;98.14;47765.09;5034355;28;20166;-86
2022/11/23 04:53:30;;;;;;;18.07;10.00;;;;;;;-141.97;98.00;47743.97;5034034;28;20162;-86
2022/11/23 04:55:55;;;;;;;19.20;10.60;;;;;;;-141.97;97.47;47707.44;5034180;28;20166;-87
2022/11/23 04:58:21;;;;;;;20.73;11.53;;;;;;;-141.97;98.20;47811.25;5035285;28;20225;-87
2022/11/23 05:00:46;;;;;;;19.40;10.67;;;;;;;-141.97;97.61;47822.78;5048247;28;20227;-87
2022/11/23 05:03:11;;;;;;;22.07;11.93;;;;;;;-141.97;97.42;47815.09;5034845;28;20597;-85
2022/11/23 05:05:38;;;;;;;22.20;11.17;;;;;;;-141.97;97.24;47799.72;5035229;28;20196;-86
2022/11/23 05:08:04;;;;;;;22.57;10.67;;;;;;;-141.97;98.14;47811.25;5034983;28;20654;-86
2022/11/23 05:10:29;;;;;;;23.67;11.57;;;;;;;-141.97;97.79;47809.31;5034701;28;20181;-86
2022/11/23 05:12:55;;;;;;;16.47;9.73;;;;;;;-141.97;97.42;47795.88;5034364;28;20745;-87
2022/11/23 05:15:20;;;;;;;23.23;10.77;;;;;;;-141.97;97.49;47765.09;5016091;28;20185;-87
2022/11/23 05:17:45;;;;;;;29.73;17.67;;;;;;;-141.97;97.24;47761.25;5033486;28;20222;-87
2022/11/23 05:20:11;;;;;;;35.33;19.53;;;;;;;-141.97;96.40;47772.78;5034229;28;20166;-86
2022/11/23 05:22:36;;;;;;;69.93;30.30;;;;;;;-141.97;96.69;47820.84;5037308;28;20162;-87
2022/11/23 05:25:02;;;;;;;42.77;23.53;;;;;;;-141.97;96.41;47795.88;5034097;28;20177;-86
2022/11/23 05:27:27;;;;;;;86.73;43.37;;;;;;;-141.97;96.76;47699.75;5034662;28;20193;-85
2022/11/23 05:29:53;;;;;;;38.73;19.80;;;;;;;-141.97;96.63;47811.25;5034694;28;20173;-87
2022/11/23 05:32:18;;;;;;;26.70;14.40;;;;;;;-141.97;97.20;47742.03;5039994;28;20177;-87
2022/11/23 05:34:44;;;;;;;32.27;17.17;;;;;;;-141.97;97.59;47784.34;5039037;28;20320;-86
2022/11/23 05:37:09;;;;;;;26.73;12.33;;;;;;;-141.97;97.10;47720.91;5038674;28;20194;-87
2022/11/23 05:39:35;;;;;;;30.90;12.93;;;;;;;-141.97;96.67;47761.25;5039472;28;20177;-87
2022/11/23 05:42:00;;;;;;;26.90;12.47;;;;;;;-141.97;96.40;47745.88;5037956;28;20166;-87
2022/11/23 05:44:26;;;;;;;29.97;15.97;;;;;;;-141.97;96.17;47880.44;5037927;28;20523;-86
2022/11/23 05:46:51;;;;;;;23.30;11.93;;;;;;;-141.97;96.56;47801.63;5049611;28;20178;-86
2022/11/23 05:49:16;;;;;;;28.83;15.17;;;;;;;-141.97;97.02;47768.94;5031587;28;20170;-87
2022/11/23 05:51:42;;;;;;;38.93;19.97;;;;;;;-141.97;96.81;47661.31;5055319;28;20166;-88
2022/11/23 05:54:07;;;;;;;43.07;22.87;;;;;;;-141.97;96.16;47680.53;5052495;28;20173;-87
2022/11/23 05:56:33;;;;;;;84.70;41.97;;;;;;;-141.97;95.91;47772.78;5038229;28;20166;-86
2022/11/23 05:58:59;;;;;;;52.50;26.63;;;;;;;-141.97;95.26;47826.63;5037640;28;20243;-86
2022/11/23 06:01:24;;;;;;;115.97;62.90;;;;;;;-141.97;94.89;47753.56;5053293;28;20173;-86
2022/11/23 06:03:50;;;;;;;90.50;47.63;;;;;;;-141.97;94.18;47713.22;5035568;28;20174;-86
2022/11/23 06:06:16;;;;;;;86.30;44.23;;;;;;;-141.97;92.53;47936.19;5003545;28;20251;-86
2022/11/23 06:08:41;;;;;;;28.07;16.67;;;;;;;-141.97;92.47;47788.19;5026775;28;20570;-86
2022/11/23 06:11:07;;;;;;;87.67;58.97;;;;;;;-141.97;93.20;47920.81;5032878;28;20225;-86
2022/11/23 06:13:33;;;;;;;33.50;23.23;;;;;;;-141.97;93.32;47840.06;5018539;28;20183;-86
2022/11/23 06:15:59;;;;;;;25.17;14.43;;;;;;;-141.97;92.75;47695.91;5014758;28;20184;-86
2022/11/23 06:18:24;;;;;;;22.67;13.13;;;;;;;-141.97;94.39;47807.41;5035422;28;20216;-86
2022/11/23 06:20:49;;;;;;;54.77;26.47;;;;;;;-141.97;94.00;47795.88;5054764;28;20244;-87
2022/11/23 06:23:15;;;;;;;27.23;15.37;;;;;;;-141.97;93.60;47786.25;5055187;28;20250;-87
2022/11/23 06:25:40;;;;;;;22.07;11.97;;;;;;;-141.97;94.09;47736.28;5018595;28;20187;-86
2022/11/23 06:28:06;;;;;;;18.37;10.90;;;;;;;-141.97;94.08;47738.19;5012611;28;20218;-85
2022/11/23 06:30:31;;;;;;;18.60;10.43;;;;;;;-141.97;93.70;47782.41;5014059;28;20189;-85
2022/11/23 06:32:57;;;;;;;22.87;13.93;;;;;;;-141.97;94.18;47803.56;5015401;28;20310;-86
2022/11/23 06:35:23;;;;;;;30.53;15.53;;;;;;;-141.97;94.06;47813.16;5014173;28;20170;-86
2022/11/23 06:37:50;;;;;;;35.47;18.20;;;;;;;-141.97;94.37;47817.00;5014721;28;20178;-86
2022/11/23 06:40:16;;;;;;;35.53;17.87;;;;;;;-141.97;95.48;47695.91;5014999;28;20190;-86
2022/11/23 06:42:41;;;;;;;35.17;18.00;;;;;;;-141.97;95.30;47745.88;5015429;28;20217;-86
2022/11/23 06:45:07;;;;;;;23.50;12.27;;;;;;;-141.97;94.72;47753.56;5031878;28;20194;-87
2022/11/23 06:47:33;;;;;;;35.30;19.27;;;;;;;-141.97;95.83;47853.53;4998362;28;20926;-86
2022/11/23 06:49:58;;;;;;;53.37;26.17;;;;;;;-141.97;96.50;47830.47;5013088;28;20187;-86
2022/11/23 06:52:23;;;;;;;57.37;27.97;;;;;;;-141.97;96.29;47776.63;5013756;28;20244;-88
2022/11/23 06:54:49;;;;;;;46.23;23.90;;;;;;;-141.97;96.81;47763.19;5015849;28;20182;-86
2022/11/23 06:57:15;;;;;;;55.20;25.23;;;;;;;-141.97;96.97;47767.03;5012570;28;21108;-86
2022/11/23 06:59:40;;;;;;;41.77;20.57;;;;;;;-141.97;97.94;47809.31;5011690;28;20186;-85
2022/11/23 07:02:06;;;;;;;90.30;38.87;;;;;;;-141.97;97.69;47776.63;5012375;28;20241;-87
2022/11/23 07:04:31;;;;;;;62.93;27.70;;;;;;;-141.97;98.61;47786.25;5012205;28;20191;-85
2022/11/23 07:06:57;;;;;;;52.07;27.07;;;;;;;-141.97;97.60;47690.16;5000508;28;20702;-85
2022/11/23 07:09:25;;;;;;;37.23;21.93;;;;;;;-141.97;96.41;47805.47;5013312;28;20229;-84
2022/11/23 07:11:50;;;;;;;36.90;19.30;;;;;;;-141.97;96.39;47795.88;4995986;28;20222;-86
2022/11/23 07:14:16;;;;;;;42.60;21.73;;;;;;;-141.97;96.65;47786.25;5012089;28;20546;-87
2022/11/23 07:16:41;;;;;;;24.53;12.40;;;;;;;-141.97;97.76;47803.56;5015266;28;20210;-87
2022/11/23 07:19:07;;;;;;;36.47;18.07;;;;;;;-141.97;98.42;47809.31;5016960;28;20686;-87
2022/11/23 07:21:33;;;;;;;59.17;25.20;;;;;;;-141.97;97.70;47803.56;4995877;28;20178;-86
2022/11/23 07:23:58;;;;;;;66.70;29.77;;;;;;;-141.97;97.36;47820.84;5013555;28;20781;-87
2022/11/23 07:26:23;;;;;;;53.83;26.17;;;;;;;-141.97;97.60;47799.72;5012337;28;20229;-88
2022/11/23 07:28:49;;;;;;;60.80;27.80;;;;;;;-141.97;97.60;47799.72;5011461;28;20631;-89
2022/11/23 07:31:15;;;;;;;39.93;22.47;;;;;;;-141.97;97.04;47832.38;5010900;28;20281;-89
2022/11/23 07:33:47;;;;;;;30.43;15.40;;;;;;;-141.97;96.41;47805.47;5010234;28;20197;-89
2022/11/23 07:36:13;;;;;;;43.63;24.77;;;;;;;-141.97;96.22;47803.56;4994184;28;20194;-90
2022/11/23 07:38:39;;;;;;;35.60;20.10;;;;;;;-141.97;97.44;47726.66;5012464;28;20282;-89
2022/11/23 07:41:04;;;;;;;35.43;18.47;;;;;;;-141.97;97.24;47830.47;5013017;28;20222;-88
2022/11/23 07:43:29;;;;;;;24.73;14.17;;;;;;;-141.97;96.75;47792.03;5013519;28;20190;-90
2022/11/23 07:45:56;;;;;;;25.43;14.43;;;;;;;-141.97;96.13;47792.03;5011866;28;20968;-87
2022/11/23 07:48:23;;;;;;;27.80;14.50;;;;;;;-141.97;96.21;47763.19;4993634;28;20206;-88
2022/11/23 07:50:51;;;;;;;56.33;30.00;;;;;;;-141.97;95.88;47813.16;5011987;28;20183;-86
2022/11/23 07:53:17;;;;;;;45.33;24.80;;;;;;;-141.97;96.15;47757.41;5016307;28;20182;-86
2022/11/23 07:55:42;;;;;;;31.50;17.87;;;;;;;-141.97;95.00;47803.56;5012879;28;20190;-86
2022/11/23 07:58:08;;;;;;;28.23;15.13;;;;;;;-141.97;94.29;47757.41;5011714;28;20189;-86
2022/11/23 08:00:33;;;;;;;32.03;15.73;;;;;;;-141.97;93.90;47767.03;5008520;28;20276;-87
2022/11/23 08:02:59;;;;;;;43.47;21.93;;;;;;;-141.97;93.80;47790.09;5039386;28;20228;-87
2022/11/23 08:05:28;;;;;;;38.70;16.30;;;;;;;-141.97;93.37;47899.66;5033321;28;20205;-86
2022/11/23 08:08:04;;;;;;;37.20;19.30;;;;;;;-141.97;93.22;47795.88;5011611;28;20273;-87
2022/11/23 08:10:33;;;;;;;37.87;17.90;;;;;;;-141.97;94.81;47615.19;5024666;28;20185;-85
2022/11/23 08:12:59;;;;;;;34.00;16.40;;;;;;;-141.97;95.02;47795.88;5029785;28;20197;-87
2022/11/23 08:15:29;;;;;;;35.90;19.47;;;;;;;-141.97;94.41;47845.84;5030953;28;20189;-85
2022/11/23 08:17:59;;;;;;;30.33;15.63;;;;;;;-141.97;95.66;47836.22;5039603;28;20182;-87
2022/11/23 08:20:26;;;;;;;29.53;14.77;;;;;;;-141.97;95.54;47788.19;5022581;28;20233;-87
2022/11/23 08:22:54;;;;;;;26.97;14.90;;;;;;;-141.97;95.74;47820.84;5018524;28;20244;-88
2022/11/23 08:25:26;;;;;;;31.53;17.60;;;;;;;-141.97;95.51;47711.28;5007516;28;20206;-88
2022/11/23 08:28:00;;;;;;;38.67;19.90;;;;;;;-141.97;95.71;47793.94;5014955;28;20202;-88
2022/11/23 08:30:26;;;;;;;33.10;17.03;;;;;;;-141.97;96.19;47822.78;5029308;28;20190;-88
2022/11/23 08:32:54;;;;;;;34.50;16.97;;;;;;;-141.97;95.93;47851.59;5013829;28;20191;-87
2022/11/23 08:35:22;;;;;;;40.23;20.37;;;;;;;-141.97;95.75;47843.91;5028574;28;20186;-87
2022/11/23 08:37:47;;;;;;;50.53;23.93;;;;;;;-141.97;95.05;47784.34;5029450;28;20256;-87
2022/11/23 08:40:13;;;;;;;42.73;20.33;;;;;;;-141.97;93.82;47822.78;5048248;28;20182;-88
2022/11/23 08:42:42;;;;;;;40.50;18.50;;;;;;;-141.97;93.38;47820.84;5032923;28;20192;-86
2022/11/23 08:45:08;;;;;;;40.73;19.57;;;;;;;-141.97;93.51;47818.94;5044671;23;20239;-86
2022/11/23 08:47:33;;;;;;;25.23;13.37;;;;;;;-141.97;93.32;47795.88;5006869;28;20265;-87
2022/11/23 08:49:59;;;;;;;33.73;17.40;;;;;;;-141.97;94.03;47788.19;5009063;28;20188;-88
2022/11/23 08:52:26;;;;;;;30.97;16.30;;;;;;;-141.97;93.35;47799.72;4980632;28;20190;-88
2022/11/23 08:54:52;;;;;;;28.37;13.73;;;;;;;-141.97;93.32;47961.19;4987067;28;20195;-87
2022/11/23 08:57:17;;;;;;;29.80;14.70;;;;;;;-141.97;93.40;47849.69;5004536;28;20186;-86
2022/11/23 08:59:43;;;;;;;31.13;16.30;;;;;;;-141.97;94.64;47763.19;4975690;28;20541;-88
2022/11/23 09:02:12;;;;;;;33.63;18.07;;;;;;;-141.97;93.55;47784.34;4984131;28;20275;-89
2022/11/23 09:04:41;;;;;;;27.90;16.40;;;;;;;-141.97;91.83;47811.25;4975581;28;20690;-88
2022/11/23 09:07:06;;;;;;;36.13;17.20;;;;;;;-141.97;92.31;47838.16;4973571;28;20196;-89
2022/11/23 09:09:32;;;;;;;36.33;20.07;;;;;;;-141.97;90.51;47736.28;4971607;28;20180;-87
2022/11/23 09:11:57;;;;;;;32.47;16.63;;;;;;;-141.97;89.80;47851.59;4973618;28;20164;-88
2022/11/23 09:14:23;;;;;;;54.20;26.60;;;;;;;-141.97;90.86;47686.31;4978707;28;20187;-87
2022/11/23 09:16:49;;;;;;;35.67;17.70;;;;;;;-141.97;90.41;47786.25;4982641;28;20172;-90
2022/11/23 09:19:14;;;;;;;23.43;12.07;;;;;;;-141.97;89.15;47797.78;4979507;28;20175;-88
2022/11/23 09:21:41;;;;;;;37.37;19.03;;;;;;;-141.97;87.99;47876.59;4982556;28;21130;-88
2022/11/23 09:24:12;;;;;;;49.77;26.13;;;;;;;-141.97;86.61;47657.47;4971289;28;20176;-89
2022/11/23 09:26:38;;;;;;;39.90;22.20;;;;;;;-141.97;84.50;47653.63;4990443;28;20179;-88
2022/11/23 09:29:07;;;;;;;44.47;23.83;;;;;;;-141.97;82.28;47863.13;4987277;28;20195;-88
2022/11/23 09:31:34;;;;;;;25.13;14.80;;;;;;;-141.97;81.27;47859.28;4967147;28;20207;-87
2022/11/23 09:34:00;;;;;;;66.37;32.47;;;;;;;-141.97;80.18;47861.22;4983772;28;20221;-87
2022/11/23 09:36:25;;;;;;;35.00;17.97;;;;;;;-141.97;78.80;47722.81;4981208;28;20271;-87
2022/11/23 09:38:51;;;;;;;29.17;16.13;;;;;;;-141.97;77.08;47818.94;4979578;28;20168;-87
2022/11/23 09:41:54;;;;;;;36.33;24.70;;;;;;;-141.97;77.29;47799.72;4985454;28;20173;-87
2022/11/23 09:44:31;;;;;;;39.13;22.77;;;;;;;-141.97;78.17;47801.63;4984317;28;20522;-87
2022/11/23 09:47:08;;;;;;;59.23;33.93;;;;;;;-141.97;79.65;47753.56;4972598;28;20246;-88
2022/11/23 09:49:55;;;;;;;66.60;38.10;;;;;;;-141.97;79.81;47865.06;4995796;28;20147;-87
2022/11/23 09:52:22;;;;;;;28.17;16.40;;;;;;;-141.97;78.28;47768.94;4975730;28;20180;-88
2022/11/23 09:54:53;;;;;;;30.37;17.80;;;;;;;-141.97;78.09;47622.88;4984242;28;20180;-90
2022/11/23 09:57:25;;;;;;;54.70;31.57;;;;;;;-141.97;78.02;47759.34;4980042;28;20168;-89
2022/11/23 10:00:00;;;;;;;30.13;17.33;;;;;;;-141.97;79.72;47776.63;4977542;28;20164;-88
2022/11/23 10:02:30;;;;;;;20.00;11.20;;;;;;;-141.97;81.18;47611.34;4981660;28;20164;-87
2022/11/23 10:04:59;;;;;;;29.17;18.77;;;;;;;-141.97;80.29;47767.03;4981264;28;20188;-88
2022/11/23 10:07:36;;;;;;;23.67;14.70;;;;;;;-141.97;78.75;47792.03;4979378;28;20203;-88
2022/11/23 10:10:17;;;;;;;27.50;15.97;;;;;;;-141.97;77.84;47772.78;4965731;28;20192;-88
2022/11/23 10:13:04;;;;;;;25.10;14.47;;;;;;;-141.97;77.79;47751.66;4990931;28;20196;-88
2022/11/23 10:15:57;;;;;;;46.17;25.43;;;;;;;-141.97;78.65;47767.03;4974850;28;20188;-88
2022/11/23 10:18:45;;;;;;;19.00;10.20;;;;;;;-141.97;77.67;47788.19;4987126;28;20199;-88
2022/11/23 10:21:32;;;;;;;20.50;11.23;;;;;;;-141.97;77.89;47792.03;4991366;28;20168;-88
2022/11/23 10:24:14;;;;;;;20.90;11.63;;;;;;;-141.97;76.47;47761.25;4973236;28;20176;-88
2022/11/23 10:26:45;;;;;;;22.30;13.23;;;;;;;-141.97;75.01;47749.72;4990964;28;20187;-88
2022/11/23 10:29:33;;;;;;;23.63;12.77;;;;;;;-141.97;73.53;47755.50;4960148;28;20219;-88
2022/11/23 10:32:01;;;;;;;21.70;12.87;;;;;;;-141.97;72.73;47718.97;4986925;28;20180;-89
2022/11/23 10:34:48;;;;;;;27.53;17.10;;;;;;;-141.97;72.87;47797.78;4964757;28;20215;-89
2022/11/23 10:37:16;;;;;;;29.93;16.30;;;;;;;-141.97;72.70;47780.47;4963809;28;20184;-89
2022/11/23 10:39:41;;;;;;;20.60;11.57;;;;;;;-141.97;73.27;47707.44;4980728;28;20595;-89
2022/11/23 10:42:31;;;;;;;27.90;16.07;;;;;;;-141.97;73.45;47767.03;4961652;28;20183;-89
2022/11/23 10:44:59;;;;;;;38.83;21.23;;;;;;;-141.97;74.17;47755.50;4981231;28;20179;-88
2022/11/23 10:47:49;;;;;;;32.77;18.33;;;;;;;-141.97;75.07;47768.94;4979556;28;20690;-88
2022/11/23 10:50:40;;;;;;;22.43;13.03;;;;;;;-141.97;75.32;47745.88;4983310;28;20169;-88
2022/11/23 10:53:07;;;;;;;24.57;14.03;;;;;;;-141.97;75.79;47742.03;4987192;28;20180;-89
2022/11/23 10:55:46;;;;;;;24.33;15.23;;;;;;;-141.97;75.55;47724.75;4978380;28;20163;-89
2022/11/23 10:58:47;;;;;;;28.50;15.27;;;;;;;-141.97;75.50;47776.63;4962130;28;20223;-88
2022/11/23 11:01:23;;;;;;;23.77;13.57;;;;;;;-141.97;76.57;47776.63;4919882;29;20166;-88